Report METAR

 

LIML - Milano/Linate, Italy
Distance from station: NO 27km
Dati ricevuti: 17/08/2017 16:50
Sereno
Sereno
 Vento da S
Vento: S 9 km/h
Temperatura: 33°C
P.to Rugiada: 13°C
Umidità: 30%
Barometro: 1016 hPa
Summary: Sereno
Visibility: superiore a 10 km
2017/08/17 14:50 LIML 171450Z 19005KT 150V230 CAVOK 33/13 Q1016 NOSIG
LIME - Bergamo/Orio Ser, Italy
Distance from station: NNE 43km
Dati ricevuti: 17/08/2017 16:50
Sereno
Sereno
 Vento da SSO
Vento: SSO 13 km/h
Temperatura: 32°C
P.to Rugiada: 14°C
Umidità: 33%
Barometro: 1017 hPa
Summary: Sereno
Visibility: superiore a 10 km
2017/08/17 14:50 LIME 171450Z 21007KT 150V260 CAVOK 32/14 Q1017 NOSIG
 
LIMS - Piacenza, it-Afb, Italy
Distance from station: SSE 45km
Dati ricevuti: 17/08/2017 16:55
Sereno
Sereno
 Vento da ENE
Vento: ENE 13 km/h
Temperatura: 32°C
P.to Rugiada: 15°C
Umidità: 36%
Barometro: 1016 hPa
Summary: Sereno
Visibility: superiore a 10 km
2017/08/17 14:55 LIMS 171455Z 07007KT 360V120 CAVOK 32/15 Q1016
LIPO - Brescia/Montichi, Italy
Distance from station: ENE 65km
Dati ricevuti: 17/08/2017 16:50
Sereno
Sereno
 Vento da O
Vento: O 6 km/h
Temperatura: 33°C
P.to Rugiada: 13°C
Umidità: 30%
Barometro: 1016 hPa
Summary: Sereno
Visibility: superiore a 10 km
2017/08/17 14:50 LIPO 171450Z 28003KT CAVOK 33/13 Q1016